Wiccopee, New York
Current Conditions -  °F | °C
As of 1:04 AM on Wednesday 22 Oct 2014 (Local Time) from KPOU Reporting Station
Overcast Overcast  
Wind Chill: 53°   Ceiling: 800
Heat Index: 53°   Visibility: 8mi
Dew Point: 51°   Wind: 8mph
Humidity: 93%   Direction: 350°N
Pressure: 29.94"   Gusts: NA
Location:  41.562°N, 73.7865°W
Report Text: KPOU 220504Z AUTO 35007KT 8SM BKN008 OVC018 12/11 A2994 RMK AO2 T01170106 TSNO
Loading
Personal Weather Stations






























Interactive Weather Map
Tropical Storm Tracking
New forecast layout! Learn more

10-Day Weather Forecast

Advertisements
Track Severe Weather on mobile